createdAt,value
2024-01-25T00:00:50.865Z,0.00
2024-01-25T00:01:50.924Z,0.00
2024-01-25T00:02:50.735Z,0.00
2024-01-25T00:03:50.799Z,0.00
2024-01-25T00:04:50.916Z,0.00
2024-01-25T00:05:50.767Z,0.00
2024-01-25T00:06:50.954Z,0.00
2024-01-25T00:07:50.916Z,0.00
2024-01-25T00:08:50.618Z,0.00
2024-01-25T00:09:50.687Z,0.00
2024-01-25T00:10:50.595Z,0.00
2024-01-25T00:11:50.601Z,0.00
2024-01-25T00:12:50.710Z,0.00
2024-01-25T00:13:50.570Z,0.00
2024-01-25T00:14:50.515Z,0.00
2024-01-25T00:15:50.644Z,0.00
2024-01-25T00:16:50.501Z,0.00
2024-01-25T00:17:50.607Z,0.00
2024-01-25T00:18:50.577Z,0.00
2024-01-25T00:19:50.546Z,0.00
2024-01-25T00:20:50.441Z,0.00
2024-01-25T00:21:50.450Z,0.00
2024-01-25T00:22:50.449Z,0.00
2024-01-25T00:23:50.380Z,0.00
2024-01-25T00:24:50.417Z,0.00
2024-01-25T00:25:50.363Z,0.00
2024-01-25T00:26:50.341Z,0.00
2024-01-25T00:27:50.378Z,0.00
2024-01-25T00:28:50.330Z,0.00
2024-01-25T00:29:50.265Z,0.00
2024-01-25T00:30:50.341Z,0.00
2024-01-25T00:31:50.262Z,0.00
2024-01-25T00:32:50.280Z,0.00
2024-01-25T00:33:50.254Z,0.00
2024-01-25T00:34:50.263Z,0.00
2024-01-25T00:35:50.191Z,0.00
2024-01-25T00:36:50.237Z,0.00
2024-01-25T00:37:50.152Z,0.00
2024-01-25T00:38:50.118Z,0.00
2024-01-25T00:39:50.220Z,0.00
2024-01-25T00:40:50.107Z,0.00
2024-01-25T00:41:50.083Z,0.00
2024-01-25T00:42:50.206Z,0.00
2024-01-25T00:43:50.052Z,0.00
2024-01-25T00:44:50.062Z,0.00
2024-01-25T00:45:50.041Z,0.00
2024-01-25T00:46:49.983Z,0.00
2024-01-25T00:47:50.061Z,0.00
2024-01-25T00:48:50.244Z,0.00
2024-01-25T00:49:50.071Z,0.00
2024-01-25T00:50:49.976Z,0.00
2024-01-25T00:51:49.976Z,0.00
2024-01-25T00:52:49.893Z,0.00
2024-01-25T00:53:49.903Z,0.00
2024-01-25T00:54:49.902Z,0.00
2024-01-25T00:55:49.892Z,0.00
2024-01-25T00:56:49.813Z,0.00
2024-01-25T00:57:49.812Z,0.00
2024-01-25T00:58:49.808Z,0.00
2024-01-25T00:59:49.766Z,0.00
2024-01-25T01:00:49.910Z,0.00
2024-01-25T01:01:49.876Z,0.00
2024-01-25T01:02:49.787Z,0.00
2024-01-25T01:03:49.794Z,0.00
2024-01-25T01:04:49.901Z,0.00
2024-01-25T01:05:49.802Z,0.00
2024-01-25T01:06:49.866Z,0.00
2024-01-25T01:07:49.745Z,0.00
2024-01-25T01:08:49.625Z,0.00
2024-01-25T01:09:49.628Z,0.00
2024-01-25T01:10:49.572Z,0.00
2024-01-25T01:11:49.547Z,0.00
2024-01-25T01:12:49.724Z,0.00
2024-01-25T01:13:49.533Z,0.00
2024-01-25T01:14:49.518Z,0.00
2024-01-25T01:15:49.528Z,0.00
2024-01-25T01:16:49.489Z,0.00
2024-01-25T01:17:49.604Z,0.00
2024-01-25T01:18:49.618Z,0.00
2024-01-25T01:19:49.578Z,0.00
2024-01-25T01:20:49.417Z,0.00
2024-01-25T01:21:49.428Z,0.00
2024-01-25T01:22:49.387Z,0.00
2024-01-25T01:23:49.399Z,0.00
2024-01-25T01:24:49.354Z,0.00
2024-01-25T01:25:49.333Z,0.00
2024-01-25T01:26:49.302Z,0.00
2024-01-25T01:27:49.340Z,0.00
2024-01-25T01:28:49.301Z,0.00
2024-01-25T01:29:49.258Z,0.00
2024-01-25T01:30:49.288Z,0.00
2024-01-25T01:31:49.216Z,0.00
2024-01-25T01:32:49.325Z,0.00
2024-01-25T01:33:49.312Z,0.00
2024-01-25T01:34:49.214Z,0.00
2024-01-25T01:35:49.122Z,0.00
2024-01-25T01:36:49.164Z,0.00
2024-01-25T01:37:49.104Z,0.00
2024-01-25T01:38:49.090Z,0.00
2024-01-25T01:39:49.164Z,0.00
2024-01-25T01:40:49.068Z,0.00
2024-01-25T01:41:49.028Z,0.00
2024-01-25T01:42:49.049Z,0.00
2024-01-25T01:43:48.984Z,0.00
2024-01-25T01:44:48.985Z,0.00
2024-01-25T01:45:49.052Z,0.00
2024-01-25T01:46:48.939Z,0.00
2024-01-25T01:47:49.137Z,0.00
2024-01-25T01:48:49.144Z,0.00
2024-01-25T01:49:49.201Z,0.00
2024-01-25T01:50:49.122Z,0.00
2024-01-25T01:51:48.925Z,0.00
2024-01-25T01:52:48.884Z,0.00
2024-01-25T01:53:48.831Z,0.00
2024-01-25T01:54:48.848Z,0.00
2024-01-25T01:55:48.781Z,0.00
2024-01-25T01:56:48.945Z,0.00
2024-01-25T01:57:48.808Z,0.00
2024-01-25T01:58:48.731Z,0.00
2024-01-25T01:59:48.722Z,0.00
2024-01-25T02:00:48.743Z,0.00
2024-01-25T02:01:48.875Z,0.00
2024-01-25T02:02:48.652Z,0.00
2024-01-25T02:03:48.731Z,0.00
2024-01-25T02:04:48.699Z,0.00
2024-01-25T02:05:48.626Z,0.00
2024-01-25T02:06:48.781Z,0.00
2024-01-25T02:07:48.615Z,0.00
2024-01-25T02:08:48.572Z,0.00
2024-01-25T02:09:48.556Z,0.00
2024-01-25T02:10:48.528Z,0.00
2024-01-25T02:11:48.490Z,0.00
2024-01-25T02:12:48.562Z,0.00
2024-01-25T02:13:48.458Z,0.00
2024-01-25T02:14:48.444Z,0.00
2024-01-25T02:15:48.478Z,0.00
2024-01-25T02:16:48.473Z,0.00
2024-01-25T02:17:48.422Z,0.00
2024-01-25T02:18:48.500Z,0.00
2024-01-25T02:19:48.456Z,0.00
2024-01-25T02:20:48.327Z,0.00
2024-01-25T02:21:48.357Z,0.00
2024-01-25T02:22:48.314Z,0.00
2024-01-25T02:23:48.312Z,0.00
2024-01-25T02:24:48.360Z,0.00
2024-01-25T02:25:48.235Z,0.00
2024-01-25T02:26:48.214Z,0.00
2024-01-25T02:27:48.228Z,0.00
2024-01-25T02:28:48.201Z,0.00
2024-01-25T02:29:48.346Z,0.00
2024-01-25T02:30:48.185Z,0.00
2024-01-25T02:31:48.151Z,0.00
2024-01-25T02:32:48.193Z,0.00
2024-01-25T02:33:48.212Z,0.00
2024-01-25T02:34:48.231Z,0.00
2024-01-25T02:35:48.091Z,0.00
2024-01-25T02:36:48.085Z,0.00
2024-01-25T02:37:48.017Z,0.00
2024-01-25T02:38:48.026Z,0.00
2024-01-25T02:39:48.062Z,0.00
2024-01-25T02:40:48.061Z,0.00
2024-01-25T02:41:47.974Z,0.00
2024-01-25T02:42:47.983Z,0.00
2024-01-25T02:43:47.913Z,0.00
2024-01-25T02:44:47.911Z,0.00
2024-01-25T02:45:47.932Z,0.00
2024-01-25T02:46:47.888Z,0.00
2024-01-25T02:47:47.977Z,0.00
2024-01-25T02:48:47.926Z,0.00
2024-01-25T02:49:47.958Z,0.00
2024-01-25T02:50:47.795Z,0.00
2024-01-25T02:51:47.832Z,0.00
2024-01-25T02:52:47.772Z,0.00
2024-01-25T02:53:47.771Z,0.00
2024-01-25T02:54:47.804Z,0.00
2024-01-25T02:55:47.733Z,0.00
2024-01-25T02:56:47.762Z,0.00
2024-01-25T02:57:47.708Z,0.00
2024-01-25T02:58:47.705Z,0.00
2024-01-25T02:59:47.695Z,0.00
2024-01-25T03:00:47.744Z,0.00
2024-01-25T03:01:47.695Z,0.00
2024-01-25T03:02:47.778Z,0.00
2024-01-25T03:03:47.626Z,0.00
2024-01-25T03:04:47.695Z,0.00
2024-01-25T03:05:47.596Z,0.00
2024-01-25T03:06:47.856Z,0.00
2024-01-25T03:07:47.605Z,0.00
2024-01-25T03:08:47.490Z,0.00
2024-01-25T03:09:47.523Z,0.00
2024-01-25T03:10:47.446Z,0.00
2024-01-25T03:11:47.442Z,0.00
2024-01-25T03:12:47.445Z,0.00
2024-01-25T03:13:47.450Z,0.00
2024-01-25T03:14:47.394Z,0.00
2024-01-25T03:15:47.426Z,0.00
2024-01-25T03:16:47.339Z,0.00
2024-01-25T03:17:47.352Z,0.00
2024-01-25T03:18:47.496Z,0.00
2024-01-25T03:19:47.530Z,0.00
2024-01-25T03:20:47.274Z,0.00
2024-01-25T03:21:47.332Z,0.00
2024-01-25T03:22:47.242Z,0.00
2024-01-25T03:23:47.220Z,0.00
2024-01-25T03:24:47.267Z,0.00
2024-01-25T03:25:47.196Z,0.00
2024-01-25T03:26:47.190Z,0.00
2024-01-25T03:27:47.213Z,0.00
2024-01-25T03:28:47.150Z,0.00
2024-01-25T03:29:47.264Z,0.00
2024-01-25T03:30:47.177Z,0.00
2024-01-25T03:31:47.084Z,0.00
2024-01-25T03:32:47.154Z,0.00
2024-01-25T03:33:47.135Z,0.00
2024-01-25T03:34:47.199Z,0.00
2024-01-25T03:35:47.052Z,0.00
2024-01-25T03:36:47.023Z,0.00
2024-01-25T03:37:46.968Z,0.00
2024-01-25T03:38:46.960Z,0.00
2024-01-25T03:39:47.041Z,0.00
2024-01-25T03:40:46.918Z,0.00
2024-01-25T03:41:46.915Z,0.00
2024-01-25T03:43:02.326Z,0.00
2024-01-25T03:43:48.958Z,0.00
2024-01-25T03:44:46.849Z,0.00
2024-01-25T03:45:47.034Z,0.00
2024-01-25T03:46:46.818Z,0.00
2024-01-25T03:47:46.830Z,0.00
2024-01-25T03:48:46.835Z,0.00
2024-01-25T03:49:46.918Z,0.00
2024-01-25T03:50:46.756Z,0.00
2024-01-25T03:51:46.821Z,0.00
2024-01-25T03:52:46.706Z,0.00
2024-01-25T03:53:46.691Z,0.00
2024-01-25T03:54:46.702Z,0.00
2024-01-25T03:55:46.650Z,0.00
2024-01-25T03:56:46.646Z,0.00
2024-01-25T03:57:46.822Z,0.00
2024-01-25T03:58:46.582Z,0.00
2024-01-25T03:59:46.583Z,0.00
2024-01-25T04:00:46.689Z,0.00
2024-01-25T04:01:46.745Z,0.00
2024-01-25T04:02:46.553Z,0.00
2024-01-25T04:03:46.572Z,0.00
2024-01-25T04:04:46.522Z,0.00
2024-01-25T04:05:46.529Z,0.00
2024-01-25T04:06:46.539Z,0.00
2024-01-25T04:07:46.436Z,0.00
2024-01-25T04:08:46.505Z,0.00
2024-01-25T04:09:46.470Z,0.00
2024-01-25T04:10:46.388Z,0.00
2024-01-25T04:11:46.393Z,0.00
2024-01-25T04:12:46.385Z,0.00
2024-01-25T04:13:46.349Z,0.00
2024-01-25T04:14:46.295Z,0.00
2024-01-25T04:15:46.370Z,0.00
2024-01-25T04:16:46.272Z,0.00
2024-01-25T04:17:46.299Z,0.00
2024-01-25T04:18:46.384Z,0.00
2024-01-25T04:19:46.434Z,0.00
2024-01-25T04:20:46.269Z,0.00
2024-01-25T04:21:46.211Z,0.00
2024-01-25T04:22:46.172Z,0.00
2024-01-25T04:23:46.152Z,0.00
2024-01-25T04:24:46.455Z,0.00
2024-01-25T04:25:46.123Z,0.00
2024-01-25T04:26:46.102Z,0.00
2024-01-25T04:27:46.094Z,0.00
2024-01-25T04:28:46.058Z,0.00
2024-01-25T04:29:47.041Z,0.00
2024-01-25T04:30:46.075Z,0.00
2024-01-25T04:31:46.001Z,0.00
2024-01-25T04:32:46.057Z,0.00
2024-01-25T04:33:48.734Z,0.00
2024-01-25T04:34:46.046Z,0.00
2024-01-25T04:35:45.975Z,0.00
2024-01-25T04:36:45.943Z,0.00
2024-01-25T04:37:45.919Z,0.00
2024-01-25T04:38:45.884Z,0.00
2024-01-25T04:39:45.910Z,0.00
2024-01-25T04:40:45.883Z,0.00
2024-01-25T04:41:45.838Z,0.00
2024-01-25T04:42:45.846Z,0.00
2024-01-25T04:43:45.771Z,0.00
2024-01-25T04:44:45.801Z,0.00
2024-01-25T04:45:45.808Z,0.00
2024-01-25T04:46:45.903Z,0.00
2024-01-25T04:47:45.751Z,0.00
2024-01-25T04:48:45.840Z,0.00
2024-01-25T04:49:45.828Z,0.00
2024-01-25T04:50:45.662Z,0.00
2024-01-25T04:51:45.722Z,0.00
2024-01-25T04:52:45.614Z,0.00
2024-01-25T04:53:45.624Z,0.00
2024-01-25T04:54:45.602Z,0.00
2024-01-25T04:55:45.584Z,0.00
2024-01-25T04:56:45.575Z,0.00
2024-01-25T04:57:45.668Z,0.00
2024-01-25T04:58:45.521Z,0.00
2024-01-25T04:59:45.515Z,0.00
2024-01-25T05:00:45.561Z,0.00
2024-01-25T05:01:45.543Z,0.00
2024-01-25T05:02:45.464Z,0.00
2024-01-25T05:03:45.502Z,0.00
2024-01-25T05:04:46.486Z,0.00
2024-01-25T05:05:46.400Z,0.00
2024-01-25T05:06:45.398Z,0.00
2024-01-25T05:07:45.476Z,0.00
2024-01-25T05:08:45.445Z,0.00
2024-01-25T05:09:45.481Z,0.00
2024-01-25T05:10:45.313Z,0.00
2024-01-25T05:11:45.296Z,0.00
2024-01-25T05:12:45.459Z,0.00
2024-01-25T05:13:45.299Z,0.00
2024-01-25T05:14:45.250Z,0.00
2024-01-25T05:15:45.286Z,0.00
2024-01-25T05:16:45.236Z,0.00
2024-01-25T05:17:45.230Z,0.00
2024-01-25T05:18:45.411Z,0.00
2024-01-25T05:19:45.356Z,0.00
2024-01-25T05:20:45.137Z,0.00
2024-01-25T05:21:45.203Z,0.00
2024-01-25T05:22:45.117Z,0.00
2024-01-25T05:23:45.130Z,0.00
2024-01-25T05:24:45.085Z,0.00
2024-01-25T05:25:45.065Z,0.00
2024-01-25T05:26:45.036Z,0.00
2024-01-25T05:27:45.071Z,0.00
2024-01-25T05:28:45.008Z,0.00
2024-01-25T05:29:45.006Z,0.00
2024-01-25T05:30:45.025Z,0.00
2024-01-25T05:31:45.042Z,0.00
2024-01-25T05:32:45.025Z,0.00
2024-01-25T05:33:45.007Z,0.00
2024-01-25T05:34:45.056Z,0.00
2024-01-25T05:35:44.927Z,0.00
2024-01-25T05:36:44.857Z,0.00
2024-01-25T05:37:44.855Z,0.00
2024-01-25T05:38:44.827Z,0.00
2024-01-25T05:39:44.829Z,0.00
2024-01-25T05:40:44.761Z,0.00
2024-01-25T05:41:44.767Z,0.00
2024-01-25T05:42:44.775Z,0.00
2024-01-25T05:43:44.740Z,0.00
2024-01-25T05:44:44.730Z,0.00
2024-01-25T05:45:44.741Z,0.00
2024-01-25T05:46:44.700Z,0.00
2024-01-25T05:47:44.775Z,0.00
2024-01-25T05:48:44.885Z,0.00
2024-01-25T05:49:44.695Z,0.00
2024-01-25T05:50:44.604Z,0.00
2024-01-25T05:51:44.591Z,0.00
2024-01-25T05:52:44.593Z,0.00
2024-01-25T05:53:44.543Z,0.00
2024-01-25T05:54:44.607Z,0.00
2024-01-25T05:55:44.641Z,0.00
2024-01-25T05:56:44.475Z,0.00
2024-01-25T05:57:44.504Z,0.00
2024-01-25T05:58:44.459Z,0.00
2024-01-25T05:59:44.433Z,0.00
2024-01-25T06:00:44.546Z,0.00
2024-01-25T06:01:44.489Z,0.00
2024-01-25T06:02:44.384Z,0.00
2024-01-25T06:03:44.442Z,0.00
2024-01-25T06:04:44.568Z,0.00
2024-01-25T06:05:44.425Z,0.00
2024-01-25T06:06:44.433Z,0.00
2024-01-25T06:07:44.481Z,0.00
2024-01-25T06:08:49.318Z,0.00
2024-01-25T06:09:45.422Z,0.00
2024-01-25T06:10:44.232Z,0.00
2024-01-25T06:11:44.215Z,0.00
2024-01-25T06:12:44.305Z,0.00
2024-01-25T06:13:44.232Z,0.00
2024-01-25T06:14:44.197Z,0.00
2024-01-25T06:15:44.211Z,0.00
2024-01-25T06:16:44.127Z,0.00
2024-01-25T06:17:44.248Z,0.00
2024-01-25T06:18:44.185Z,0.00
2024-01-25T06:19:44.433Z,0.00
2024-01-25T06:20:44.087Z,0.00
2024-01-25T06:21:44.077Z,0.00
2024-01-25T06:22:44.022Z,0.00
2024-01-25T06:23:43.992Z,0.00
2024-01-25T06:24:44.015Z,0.00
2024-01-25T06:25:43.999Z,0.00
2024-01-25T06:26:43.938Z,0.00
2024-01-25T06:27:43.993Z,0.00
2024-01-25T06:28:43.903Z,0.00
2024-01-25T06:29:43.905Z,0.00
2024-01-25T06:30:43.985Z,0.00
2024-01-25T06:31:43.869Z,0.00
2024-01-25T06:32:43.856Z,0.00
2024-01-25T06:33:43.958Z,0.00
2024-01-25T06:34:43.869Z,0.00
2024-01-25T06:35:43.875Z,0.00
2024-01-25T06:36:43.866Z,4.00
2024-01-25T06:37:43.784Z,0.00
2024-01-25T06:38:43.731Z,0.00
2024-01-25T06:39:43.773Z,0.00
2024-01-25T06:40:43.691Z,0.00
2024-01-25T06:41:43.724Z,4.00
2024-01-25T06:42:43.699Z,4.00
2024-01-25T06:43:43.637Z,4.00
2024-01-25T06:44:43.605Z,8.00
2024-01-25T06:45:43.636Z,4.00
2024-01-25T06:46:43.578Z,4.00
2024-01-25T06:47:43.636Z,8.00
2024-01-25T06:48:43.676Z,8.00
2024-01-25T06:49:43.598Z,8.00
2024-01-25T06:50:43.627Z,12.00
2024-01-25T06:51:43.516Z,12.00
2024-01-25T06:52:43.483Z,16.00
2024-01-25T06:53:43.442Z,24.00
2024-01-25T06:54:43.503Z,28.00
2024-01-25T06:55:43.408Z,24.00
2024-01-25T06:56:43.406Z,28.00
2024-01-25T06:57:43.945Z,28.00
2024-01-25T06:58:43.398Z,32.00
2024-01-25T06:59:43.347Z,32.00
2024-01-25T07:00:43.447Z,40.00
2024-01-25T07:01:43.441Z,48.00
2024-01-25T07:02:43.364Z,60.00
2024-01-25T07:03:43.395Z,56.00
2024-01-25T07:04:43.314Z,56.00
2024-01-25T07:05:43.227Z,60.00
2024-01-25T07:06:43.372Z,76.00
2024-01-25T07:07:43.204Z,76.00
2024-01-25T07:08:43.180Z,120.00
2024-01-25T07:09:43.222Z,140.00
2024-01-25T07:10:43.142Z,156.00
2024-01-25T07:11:43.140Z,144.00
2024-01-25T07:12:43.143Z,148.00
2024-01-25T07:13:43.085Z,156.00
2024-01-25T07:14:43.105Z,176.00
2024-01-25T07:15:43.072Z,204.00
2024-01-25T07:16:43.049Z,208.00
2024-01-25T07:17:43.023Z,272.00
2024-01-25T07:18:43.140Z,308.00
2024-01-25T07:19:43.103Z,280.00
2024-01-25T07:20:43.218Z,268.00
2024-01-25T07:21:42.977Z,260.00
2024-01-25T07:22:42.908Z,356.00
2024-01-25T07:23:42.894Z,452.00
2024-01-25T07:24:42.911Z,472.00
2024-01-25T07:25:42.921Z,444.00
2024-01-25T07:26:42.837Z,408.00
2024-01-25T07:27:42.859Z,524.00
2024-01-25T07:28:42.809Z,640.00
2024-01-25T07:29:42.784Z,628.00
2024-01-25T07:30:42.841Z,588.00
2024-01-25T07:31:42.848Z,628.00
2024-01-25T07:32:42.735Z,700.00
2024-01-25T07:33:42.902Z,688.00
2024-01-25T07:34:42.768Z,696.00
2024-01-25T07:35:42.674Z,584.00
2024-01-25T07:36:42.727Z,536.00
2024-01-25T07:37:42.635Z,660.00
2024-01-25T07:38:42.618Z,824.00
2024-01-25T07:39:42.689Z,928.00
2024-01-25T07:40:42.600Z,780.00
2024-01-25T07:41:42.668Z,684.00
2024-01-25T07:42:42.601Z,768.00
2024-01-25T07:43:42.599Z,876.00
2024-01-25T07:44:42.563Z,792.00
2024-01-25T07:45:42.509Z,784.00
2024-01-25T07:46:42.519Z,992.00
2024-01-25T07:47:42.502Z,840.00
2024-01-25T07:48:42.494Z,764.00
2024-01-25T07:49:42.521Z,756.00
2024-01-25T07:50:42.559Z,920.00
2024-01-25T07:51:42.475Z,1260.00
2024-01-25T07:52:42.332Z,972.00
2024-01-25T07:53:42.368Z,972.00
2024-01-25T07:54:43.327Z,940.00
2024-01-25T07:55:42.323Z,1056.00
2024-01-25T07:56:43.274Z,1192.00
2024-01-25T07:57:42.256Z,1648.00
2024-01-25T07:58:42.267Z,1572.00
2024-01-25T07:59:42.240Z,1236.00
2024-01-25T08:00:42.287Z,1080.00
2024-01-25T08:01:42.305Z,1228.00
2024-01-25T08:02:42.181Z,1516.00
2024-01-25T08:03:42.249Z,1444.00
2024-01-25T08:04:42.512Z,1456.00
2024-01-25T08:05:48.089Z,1932.00
2024-01-25T08:06:43.279Z,2372.00
2024-01-25T08:07:42.331Z,2708.00
2024-01-25T08:08:42.069Z,2124.00
2024-01-25T08:09:42.150Z,2076.00
2024-01-25T08:10:42.084Z,2892.00
2024-01-25T08:11:42.018Z,2968.00
2024-01-25T08:12:48.370Z,3164.00
2024-01-25T08:13:44.049Z,3404.00
2024-01-25T08:14:42.144Z,3552.00
2024-01-25T08:15:42.052Z,4320.00
2024-01-25T08:16:41.981Z,4892.00
2024-01-25T08:17:42.086Z,5500.00
2024-01-25T08:18:42.059Z,5616.00
2024-01-25T08:19:42.009Z,5192.00
2024-01-25T08:20:41.977Z,5000.00
2024-01-25T08:21:41.991Z,4480.00
2024-01-25T08:22:41.871Z,4564.00
2024-01-25T08:23:43.482Z,3984.00
2024-01-25T08:24:41.845Z,3416.00
2024-01-25T08:25:41.865Z,3592.00
2024-01-25T08:26:41.750Z,3104.00
2024-01-25T08:27:41.842Z,3548.00
2024-01-25T08:28:41.759Z,2624.00
2024-01-25T08:29:41.707Z,2776.00
2024-01-25T08:30:41.744Z,3228.00
2024-01-25T08:31:41.870Z,3740.00
2024-01-25T08:32:41.684Z,4908.00
2024-01-25T08:33:41.886Z,5348.00
2024-01-25T08:34:41.792Z,4624.00
2024-01-25T08:35:41.765Z,5408.00
2024-01-25T08:36:41.784Z,5180.00
2024-01-25T08:37:41.556Z,4756.00
2024-01-25T08:38:41.565Z,5304.00
2024-01-25T08:39:41.581Z,6572.00
2024-01-25T08:40:41.581Z,7312.00
2024-01-25T08:41:42.156Z,8408.00
2024-01-25T08:42:42.570Z,8668.00
2024-01-25T08:43:41.527Z,8420.00
2024-01-25T08:44:41.441Z,7176.00
2024-01-25T08:45:41.486Z,6876.00
2024-01-25T08:46:41.469Z,6088.00
2024-01-25T08:47:41.422Z,5948.00
2024-01-25T08:48:41.547Z,6000.00
2024-01-25T08:49:41.449Z,6580.00
2024-01-25T08:50:41.445Z,6300.00
2024-01-25T08:51:41.338Z,4960.00
2024-01-25T08:52:41.316Z,4064.00
2024-01-25T08:53:41.301Z,3932.00
2024-01-25T08:54:41.306Z,4272.00
2024-01-25T08:55:41.314Z,4524.00
2024-01-25T08:56:41.233Z,4360.00
2024-01-25T08:57:41.303Z,5436.00
2024-01-25T08:58:41.296Z,5924.00
2024-01-25T08:59:41.214Z,5132.00
2024-01-25T09:00:41.340Z,3956.00
2024-01-25T09:01:41.322Z,3668.00
2024-01-25T09:02:41.107Z,3856.00
2024-01-25T09:03:41.580Z,3336.00
2024-01-25T09:04:41.231Z,3044.00
2024-01-25T09:05:41.220Z,2720.00
2024-01-25T09:06:41.211Z,2552.00
2024-01-25T09:07:41.133Z,2564.00
2024-01-25T09:08:41.041Z,2780.00
2024-01-25T09:09:41.194Z,3056.00
2024-01-25T09:10:41.084Z,4008.00
2024-01-25T09:11:40.972Z,4316.00
2024-01-25T09:12:41.025Z,4096.00
2024-01-25T09:13:45.768Z,3852.00
2024-01-25T09:14:41.935Z,4072.00
2024-01-25T09:15:40.957Z,4240.00
2024-01-25T09:16:40.967Z,4488.00
2024-01-25T09:17:41.091Z,4960.00
2024-01-25T09:18:40.969Z,3984.00
2024-01-25T09:19:40.877Z,3736.00
2024-01-25T09:20:40.858Z,4056.00
2024-01-25T09:21:40.872Z,4144.00
2024-01-25T09:22:40.842Z,4160.00
2024-01-25T09:23:40.788Z,4180.00
2024-01-25T09:24:40.754Z,3900.00
2024-01-25T09:25:40.752Z,3908.00
2024-01-25T09:26:40.733Z,4364.00
2024-01-25T09:27:40.858Z,4772.00
2024-01-25T09:28:40.736Z,3840.00
2024-01-25T09:29:40.659Z,3188.00
2024-01-25T09:30:40.750Z,3316.00
2024-01-25T09:31:40.786Z,3700.00
2024-01-25T09:32:40.783Z,3836.00
2024-01-25T09:33:40.718Z,4072.00
2024-01-25T09:34:41.544Z,3808.00
2024-01-25T09:35:40.924Z,4008.00
2024-01-25T09:36:40.599Z,4784.00
2024-01-25T09:37:40.654Z,4676.00
2024-01-25T09:38:40.509Z,4840.00
2024-01-25T09:39:40.584Z,5432.00
2024-01-25T09:40:40.533Z,5472.00
2024-01-25T09:41:40.453Z,5160.00
2024-01-25T09:42:41.602Z,5652.00
2024-01-25T09:43:40.457Z,5600.00
2024-01-25T09:44:40.415Z,19072.00
2024-01-25T09:45:40.437Z,4800.00
2024-01-25T09:46:40.401Z,4080.00
2024-01-25T09:47:40.495Z,4244.00
2024-01-25T09:48:40.494Z,3672.00
2024-01-25T09:49:40.465Z,4028.00
2024-01-25T09:50:40.418Z,3936.00
2024-01-25T09:51:40.329Z,3592.00
2024-01-25T09:52:40.300Z,3188.00
2024-01-25T09:53:40.313Z,3596.00
2024-01-25T09:54:40.311Z,3956.00
2024-01-25T09:55:40.850Z,4400.00
2024-01-25T09:56:40.221Z,4152.00
2024-01-25T09:57:40.278Z,4168.00
2024-01-25T09:58:40.175Z,4432.00
2024-01-25T09:59:40.183Z,4536.00
2024-01-25T10:00:40.218Z,4256.00
2024-01-25T10:01:40.273Z,4160.00
2024-01-25T10:02:40.222Z,4016.00
2024-01-25T10:03:40.129Z,3680.00
2024-01-25T10:04:40.179Z,3612.00
2024-01-25T10:05:40.205Z,3620.00
2024-01-25T10:06:40.255Z,3944.00
2024-01-25T10:07:40.275Z,3936.00
2024-01-25T10:08:40.028Z,3768.00
2024-01-25T10:09:40.027Z,3752.00
2024-01-25T10:10:40.035Z,3672.00
2024-01-25T10:11:43.086Z,3812.00
2024-01-25T10:12:40.982Z,3680.00
2024-01-25T10:13:39.951Z,3680.00
2024-01-25T10:14:39.898Z,3596.00
2024-01-25T10:15:39.964Z,3652.00
2024-01-25T10:16:39.946Z,4040.00
2024-01-25T10:17:58.849Z,4684.00
2024-01-25T10:18:42.079Z,4948.00
2024-01-25T10:19:40.023Z,5044.00
2024-01-25T10:20:40.951Z,5228.00
2024-01-25T10:21:40.088Z,5576.00
2024-01-25T10:22:39.890Z,6216.00
2024-01-25T10:23:39.894Z,5884.00
2024-01-25T10:24:39.894Z,5068.00
2024-01-25T10:25:39.748Z,4348.00
2024-01-25T10:26:39.744Z,4160.00
2024-01-25T10:27:39.755Z,4068.00
2024-01-25T10:28:39.799Z,3936.00
2024-01-25T10:29:39.718Z,3924.00
2024-01-25T10:30:39.679Z,4068.00
2024-01-25T10:31:39.737Z,4300.00
2024-01-25T10:32:39.617Z,4344.00
2024-01-25T10:33:39.862Z,4376.00
2024-01-25T10:34:39.624Z,4508.00
2024-01-25T10:35:39.670Z,5228.00
2024-01-25T10:36:39.552Z,5576.00
2024-01-25T10:37:39.577Z,6024.00
2024-01-25T10:38:39.756Z,6292.00
2024-01-25T10:39:39.525Z,6628.00
2024-01-25T10:40:39.625Z,7036.00
2024-01-25T10:41:39.440Z,6536.00
2024-01-25T10:42:39.485Z,6320.00
2024-01-25T10:43:39.476Z,6320.00
2024-01-25T10:44:39.380Z,6772.00
2024-01-25T10:45:39.439Z,6624.00
2024-01-25T10:46:39.527Z,6260.00
2024-01-25T10:47:40.404Z,5900.00
2024-01-25T10:48:39.437Z,5504.00
2024-01-25T10:49:39.406Z,5180.00
2024-01-25T10:50:39.375Z,5028.00
2024-01-25T10:51:39.316Z,5076.00
2024-01-25T10:52:39.334Z,4896.00
2024-01-25T10:53:39.305Z,4672.00
2024-01-25T10:54:39.278Z,4612.00
2024-01-25T10:55:39.276Z,4888.00
2024-01-25T10:56:39.199Z,5396.00
2024-01-25T10:57:39.283Z,6076.00
2024-01-25T10:58:39.277Z,6220.00
2024-01-25T10:59:39.131Z,6248.00
2024-01-25T11:00:39.190Z,6124.00
2024-01-25T11:01:39.232Z,5468.00
2024-01-25T11:02:39.294Z,5412.00
2024-01-25T11:03:39.200Z,5164.00
2024-01-25T11:04:39.234Z,4888.00
2024-01-25T11:05:39.268Z,5008.00
2024-01-25T11:06:39.197Z,5460.00
2024-01-25T11:07:39.067Z,5612.00
2024-01-25T11:08:38.995Z,5740.00
2024-01-25T11:09:39.027Z,5408.00
2024-01-25T11:10:39.119Z,5736.00
2024-01-25T11:11:38.948Z,6288.00
2024-01-25T11:12:38.987Z,6432.00
2024-01-25T11:13:38.949Z,6948.00
2024-01-25T11:14:38.906Z,7624.00
2024-01-25T11:15:38.928Z,7708.00
2024-01-25T11:16:38.883Z,7612.00
2024-01-25T11:17:38.851Z,6552.00
2024-01-25T11:18:38.948Z,6196.00
2024-01-25T11:19:38.947Z,6832.00
2024-01-25T11:20:39.067Z,7348.00
2024-01-25T11:21:38.828Z,7348.00
2024-01-25T11:22:38.790Z,6888.00
2024-01-25T11:23:38.744Z,7136.00
2024-01-25T11:24:38.784Z,7208.00
2024-01-25T11:25:38.740Z,8276.00
2024-01-25T11:26:38.733Z,8936.00
2024-01-25T11:27:38.693Z,8680.00
2024-01-25T11:28:38.715Z,8444.00
2024-01-25T11:29:40.601Z,8020.00
2024-01-25T11:30:38.888Z,7924.00
2024-01-25T11:31:38.820Z,7624.00
2024-01-25T11:32:38.611Z,7372.00
2024-01-25T11:33:38.688Z,7016.00
2024-01-25T11:34:38.666Z,6828.00
2024-01-25T11:35:38.765Z,7048.00
2024-01-25T11:36:38.559Z,7156.00
2024-01-25T11:37:38.567Z,7024.00
2024-01-25T11:38:38.491Z,6956.00
2024-01-25T11:39:38.509Z,6904.00
2024-01-25T11:40:38.579Z,6920.00
2024-01-25T11:41:38.426Z,6972.00
2024-01-25T11:42:38.485Z,6916.00
2024-01-25T11:43:38.433Z,6948.00
2024-01-25T11:44:38.382Z,6852.00
2024-01-25T11:45:38.401Z,6848.00
2024-01-25T11:46:38.910Z,6796.00
2024-01-25T11:47:38.380Z,6744.00
2024-01-25T11:48:38.387Z,6672.00
2024-01-25T11:49:38.492Z,6664.00
2024-01-25T11:50:38.346Z,6676.00
2024-01-25T11:51:38.408Z,6744.00
2024-01-25T11:52:38.521Z,6864.00
2024-01-25T11:53:38.386Z,6912.00
2024-01-25T11:54:38.223Z,6992.00
2024-01-25T11:55:38.246Z,7128.00
2024-01-25T11:56:38.168Z,7276.00
2024-01-25T11:57:38.185Z,7252.00
2024-01-25T11:58:41.530Z,7220.00
2024-01-25T11:59:38.288Z,7224.00
2024-01-25T12:00:38.317Z,7228.00
2024-01-25T12:01:38.345Z,7280.00
2024-01-25T12:02:38.337Z,7244.00
2024-01-25T12:03:38.120Z,7172.00
2024-01-25T12:04:38.458Z,7100.00
2024-01-25T12:05:38.185Z,7060.00
2024-01-25T12:06:38.628Z,7068.00
2024-01-25T12:07:38.109Z,7064.00
2024-01-25T12:08:37.967Z,7144.00
2024-01-25T12:09:38.014Z,7156.00
2024-01-25T12:10:38.022Z,7068.00
2024-01-25T12:11:37.991Z,7024.00
2024-01-25T12:12:38.081Z,6832.00
2024-01-25T12:13:37.962Z,6640.00
2024-01-25T12:14:37.879Z,6448.00
2024-01-25T12:15:37.964Z,6336.00
2024-01-25T12:16:38.953Z,6324.00
2024-01-25T12:17:38.027Z,6404.00
2024-01-25T12:18:38.077Z,6620.00
2024-01-25T12:19:38.047Z,6828.00
2024-01-25T12:20:37.933Z,6924.00
2024-01-25T12:21:38.160Z,7248.00
2024-01-25T12:22:38.558Z,7296.00
2024-01-25T12:23:38.698Z,7376.00
2024-01-25T12:24:39.155Z,7504.00
2024-01-25T12:25:37.706Z,7588.00
2024-01-25T12:26:37.680Z,7580.00
2024-01-25T12:27:37.678Z,7460.00
2024-01-25T12:28:37.835Z,7252.00
2024-01-25T12:29:37.602Z,7112.00
2024-01-25T12:30:37.688Z,6756.00
2024-01-25T12:31:37.773Z,6696.00
2024-01-25T12:32:37.645Z,6616.00
2024-01-25T12:33:37.972Z,6520.00
2024-01-25T12:34:38.484Z,6412.00
2024-01-25T12:35:38.799Z,6308.00
2024-01-25T12:36:37.643Z,5916.00
2024-01-25T12:37:37.676Z,5960.00
2024-01-25T12:38:37.483Z,5924.00
2024-01-25T12:39:37.473Z,5436.00
2024-01-25T12:40:37.486Z,5340.00
2024-01-25T12:41:37.475Z,5692.00
2024-01-25T12:42:37.534Z,5788.00
2024-01-25T12:43:37.525Z,5640.00
2024-01-25T12:44:37.491Z,5568.00
2024-01-25T12:45:37.388Z,5456.00